Terminal Aerodrome Forecast
Issued by NWS Cleveland, OH

Home | Current Version | Previous Version | Graphics & Text | Print | Product List | Glossary On
Versions: 1 2 3 4 5 6 7 8 9 10 11 12 13 14 15 16 17 18 19 20 21 22 23 24 25 26 27
223
FTUS41 KCLE 302110 AAA
TAFMFD
TAF AMD
KMFD 302110Z 3021/0118 11010G18KT 4SM -RA OVC015
      TEMPO 3021/0101 2SM RA BR OVC006
     FM010100 13010KT 3SM RA BR OVC008
     FM010500 18006KT 3SM -RA BR OVC004
     FM011300 21006KT 6SM BR OVC008=

USA.gov is the U.S. government's official web portal to all federal, state and local government web resources and services.